createdAt,value
2022-09-21T00:00:28.298Z,84.04
2022-09-21T00:03:18.166Z,84.48
2022-09-21T00:05:47.006Z,84.31
2022-09-21T00:08:16.360Z,84.23
2022-09-21T00:10:51.162Z,84.25
2022-09-21T00:13:36.464Z,84.47
2022-09-21T00:16:07.883Z,84.57
2022-09-21T00:18:37.323Z,84.49
2022-09-21T00:21:13.291Z,84.42
2022-09-21T00:23:43.509Z,84.59
2022-09-21T00:26:18.617Z,84.57
2022-09-21T00:29:02.931Z,84.74
2022-09-21T00:31:33.421Z,84.67
2022-09-21T00:34:03.868Z,84.72
2022-09-21T00:36:33.254Z,84.82
2022-09-21T00:39:15.861Z,84.71
2022-09-21T00:41:46.322Z,84.80
2022-09-21T00:44:34.432Z,84.91
2022-09-21T00:47:31.494Z,85.11
2022-09-21T00:50:05.096Z,84.85
2022-09-21T00:52:38.716Z,85.11
2022-09-21T00:55:17.968Z,85.40
2022-09-21T00:57:52.317Z,85.50
2022-09-21T01:00:21.738Z,85.34
2022-09-21T01:02:52.004Z,85.08
2022-09-21T01:05:20.782Z,85.43
2022-09-21T01:08:06.846Z,85.51
2022-09-21T01:10:49.057Z,85.57
2022-09-21T01:13:37.134Z,85.32
2022-09-21T01:16:21.573Z,85.56
2022-09-21T01:19:26.189Z,85.68
2022-09-21T01:22:47.339Z,85.69
2022-09-21T01:25:48.535Z,85.81
2022-09-21T01:28:32.293Z,85.81
2022-09-21T01:31:06.589Z,85.72
2022-09-21T01:33:42.984Z,85.82
2022-09-21T01:36:21.098Z,85.64
2022-09-21T01:39:15.584Z,85.75
2022-09-21T01:41:59.450Z,85.98
2022-09-21T01:44:33.344Z,85.84
2022-09-21T01:47:07.097Z,85.87
2022-09-21T01:49:45.127Z,86.13
2022-09-21T01:52:36.938Z,86.05
2022-09-21T01:55:26.503Z,85.77
2022-09-21T01:58:13.184Z,86.36
2022-09-21T02:00:46.203Z,86.28
2022-09-21T02:03:33.358Z,86.19
2022-09-21T02:06:04.863Z,86.39
2022-09-21T02:08:35.237Z,86.15
2022-09-21T02:11:05.890Z,86.51
2022-09-21T02:13:39.962Z,86.11
2022-09-21T02:16:09.515Z,86.41
2022-09-21T02:19:12.637Z,86.47
2022-09-21T02:22:06.661Z,86.50
2022-09-21T02:24:49.451Z,86.39
2022-09-21T02:27:50.102Z,86.52
2022-09-21T02:30:21.855Z,86.51
2022-09-21T02:33:18.451Z,86.48
2022-09-21T02:36:05.930Z,86.52
2022-09-21T02:38:57.528Z,86.20
2022-09-21T02:41:32.543Z,86.40
2022-09-21T02:44:24.581Z,86.76
2022-09-21T02:47:05.361Z,86.56
2022-09-21T02:49:46.310Z,86.53
2022-09-21T02:52:17.983Z,86.49
2022-09-21T02:54:52.547Z,86.37
2022-09-21T02:57:24.037Z,86.58
2022-09-21T02:59:56.425Z,86.30
2022-09-21T03:02:40.041Z,86.47
2022-09-21T03:05:12.504Z,86.50
2022-09-21T03:07:41.700Z,86.40
2022-09-21T03:10:11.016Z,86.66
2022-09-21T03:12:40.717Z,86.60
2022-09-21T03:15:10.976Z,86.31
2022-09-21T03:17:39.943Z,86.96
2022-09-21T03:20:09.892Z,86.75
2022-09-21T03:22:39.905Z,87.06
2022-09-21T03:25:24.738Z,86.71
2022-09-21T03:27:56.425Z,86.87
2022-09-21T03:30:27.164Z,86.74
2022-09-21T03:32:56.940Z,86.94
2022-09-21T03:35:40.168Z,86.73
2022-09-21T03:38:10.275Z,86.75
2022-09-21T03:40:42.590Z,86.78
2022-09-21T03:43:25.437Z,86.81
2022-09-21T03:45:55.358Z,86.96
2022-09-21T03:48:25.105Z,86.78
2022-09-21T03:50:54.326Z,86.64
2022-09-21T03:53:23.075Z,86.88
2022-09-21T03:55:51.866Z,87.21
2022-09-21T03:58:21.203Z,86.95
2022-09-21T04:00:50.751Z,87.23
2022-09-21T04:03:21.613Z,87.14
2022-09-21T04:05:50.368Z,87.04
2022-09-21T04:08:19.382Z,87.01
2022-09-21T04:10:47.871Z,87.13
2022-09-21T04:13:16.442Z,87.10
2022-09-21T04:15:45.287Z,87.34
2022-09-21T04:18:14.068Z,87.10
2022-09-21T04:20:42.764Z,87.24
2022-09-21T04:23:12.055Z,87.36
2022-09-21T04:25:42.258Z,87.17
2022-09-21T04:28:11.358Z,87.37
2022-09-21T04:30:56.169Z,87.45
2022-09-21T04:33:25.312Z,87.26
2022-09-21T04:35:57.800Z,87.70
2022-09-21T04:38:41.174Z,87.32
2022-09-21T04:41:11.252Z,87.24
2022-09-21T04:43:48.128Z,87.45
2022-09-21T04:46:20.606Z,87.24
2022-09-21T04:48:50.847Z,87.42
2022-09-21T04:51:19.935Z,87.32
2022-09-21T04:53:48.627Z,87.35
2022-09-21T04:56:17.824Z,87.48
2022-09-21T04:58:46.476Z,87.29
2022-09-21T05:01:15.281Z,87.32
2022-09-21T05:03:43.784Z,87.62
2022-09-21T05:06:14.109Z,87.67
2022-09-21T05:09:01.688Z,87.47
2022-09-21T05:11:44.466Z,87.53
2022-09-21T05:14:13.945Z,87.63
2022-09-21T05:16:43.252Z,87.77
2022-09-21T05:19:12.467Z,87.76
2022-09-21T05:21:41.117Z,87.75
2022-09-21T05:24:10.007Z,88.18
2022-09-21T05:26:39.237Z,88.02
2022-09-21T05:29:22.150Z,88.10
2022-09-21T05:32:28.777Z,88.25
2022-09-21T05:35:22.773Z,87.98
2022-09-21T05:38:06.206Z,88.04
2022-09-21T05:40:35.569Z,87.95
2022-09-21T05:43:18.682Z,88.08
2022-09-21T05:45:59.381Z,88.58
2022-09-21T05:51:56.677Z,88.12
2022-09-21T05:54:57.648Z,88.23
2022-09-21T05:57:51.432Z,88.26
2022-09-21T06:00:22.585Z,88.44
2022-09-21T06:03:33.376Z,88.40
2022-09-21T06:06:03.068Z,88.21
2022-09-21T06:08:31.566Z,88.10
2022-09-21T06:11:15.072Z,88.29
2022-09-21T06:13:44.447Z,88.09
2022-09-21T06:16:14.132Z,88.04
2022-09-21T06:18:43.936Z,87.92
2022-09-21T06:21:13.207Z,88.23
2022-09-21T06:23:42.306Z,88.03
2022-09-21T06:26:10.944Z,88.07
2022-09-21T06:28:39.982Z,87.76
2022-09-21T06:31:08.821Z,87.98
2022-09-21T06:33:38.367Z,87.95
2022-09-21T06:36:07.503Z,87.57
2022-09-21T06:38:37.482Z,87.75
2022-09-21T06:41:06.473Z,87.65
2022-09-21T06:43:35.315Z,87.45
2022-09-21T06:46:05.188Z,87.87
2022-09-21T06:48:36.392Z,88.07
2022-09-21T06:51:07.181Z,87.87
2022-09-21T06:53:49.902Z,87.91
2022-09-21T06:56:19.191Z,87.90
2022-09-21T07:01:45.095Z,87.78
2022-09-21T07:04:13.889Z,88.06
2022-09-21T07:06:56.279Z,87.76
2022-09-21T07:12:15.126Z,87.55
2022-09-21T07:14:57.385Z,87.36
2022-09-21T07:17:40.421Z,87.26
2022-09-21T07:20:09.558Z,87.27
2022-09-21T07:22:38.267Z,87.44
2022-09-21T07:25:07.068Z,87.42
2022-09-21T07:27:36.102Z,87.40
2022-09-21T07:30:06.199Z,87.47
2022-09-21T07:32:36.614Z,86.73
2022-09-21T07:35:06.166Z,86.94
2022-09-21T07:37:34.806Z,87.23
2022-09-21T07:40:06.329Z,87.17
2022-09-21T07:42:35.239Z,86.89
2022-09-21T07:45:04.561Z,86.97
2022-09-21T07:47:36.959Z,87.09
2022-09-21T07:50:06.276Z,87.06
2022-09-21T07:52:35.285Z,87.45
2022-09-21T07:55:04.648Z,87.00
2022-09-21T07:57:52.740Z,87.04
2022-09-21T08:00:21.564Z,87.09
2022-09-21T08:02:50.547Z,87.44
2022-09-21T08:05:24.798Z,87.31
2022-09-21T08:07:57.694Z,86.55
2022-09-21T08:10:40.148Z,86.39
2022-09-21T08:13:12.203Z,86.47
2022-09-21T08:15:50.221Z,86.03
2022-09-21T08:18:33.745Z,86.09
2022-09-21T08:21:17.228Z,86.19
2022-09-21T08:23:50.225Z,86.01
2022-09-21T08:26:23.251Z,85.86
2022-09-21T08:28:59.305Z,85.61
2022-09-21T08:31:28.441Z,85.39
2022-09-21T08:34:01.553Z,85.20
2022-09-21T08:36:31.790Z,84.98
2022-09-21T08:39:00.494Z,84.09
2022-09-21T08:42:11.828Z,84.23
2022-09-21T08:44:53.520Z,84.57
2022-09-21T08:47:28.281Z,84.83
2022-09-21T08:50:01.697Z,84.84
2022-09-21T08:52:33.748Z,85.10
2022-09-21T08:55:14.183Z,83.93
2022-09-21T08:57:45.672Z,83.70
2022-09-21T09:00:18.114Z,83.80
2022-09-21T09:03:16.103Z,83.20
2022-09-21T09:06:03.513Z,83.48
2022-09-21T09:09:11.497Z,83.41
2022-09-21T09:12:16.102Z,83.28
2022-09-21T09:14:58.435Z,83.47
2022-09-21T09:18:01.414Z,83.40
2022-09-21T09:20:37.315Z,83.32
2022-09-21T09:23:27.867Z,82.47
2022-09-21T09:26:11.291Z,82.34
2022-09-21T09:28:54.206Z,82.27
2022-09-21T09:31:39.154Z,81.59
2022-09-21T09:34:34.449Z,81.42
2022-09-21T09:37:13.438Z,81.51
2022-09-21T09:39:46.336Z,81.16
2022-09-21T09:43:01.328Z,80.65
2022-09-21T09:45:59.871Z,80.30
2022-09-21T09:48:51.892Z,81.54
2022-09-21T09:51:24.084Z,80.75
2022-09-21T09:53:57.742Z,80.18
2022-09-21T09:56:27.678Z,79.71
2022-09-21T09:59:07.281Z,80.65
2022-09-21T10:01:47.648Z,80.28
2022-09-21T10:04:21.302Z,79.14
2022-09-21T10:06:50.226Z,79.53
2022-09-21T10:09:33.646Z,79.48
2022-09-21T10:12:17.398Z,77.85
2022-09-21T10:14:52.247Z,78.54
2022-09-21T10:17:21.953Z,79.20
2022-09-21T10:22:57.678Z,78.28
2022-09-21T10:25:27.056Z,78.34
2022-09-21T10:27:57.038Z,78.56
2022-09-21T10:30:38.890Z,79.01
2022-09-21T10:33:22.730Z,79.90
2022-09-21T10:35:53.637Z,79.83
2022-09-21T10:38:29.573Z,79.79
2022-09-21T10:40:58.791Z,79.82
2022-09-21T10:43:44.687Z,79.98
2022-09-21T10:46:14.996Z,79.36
2022-09-21T10:48:46.808Z,79.25
2022-09-21T10:51:29.458Z,79.42
2022-09-21T10:53:58.210Z,80.04
2022-09-21T10:56:28.016Z,80.14
2022-09-21T10:59:36.623Z,80.30
2022-09-21T11:02:27.408Z,79.59
2022-09-21T11:05:23.124Z,79.15
2022-09-21T11:08:00.747Z,79.90
2022-09-21T11:10:48.035Z,80.09
2022-09-21T11:13:43.850Z,79.89
2022-09-21T11:16:15.685Z,80.09
2022-09-21T11:19:29.409Z,80.58
2022-09-21T11:22:08.323Z,80.18
2022-09-21T11:25:24.117Z,80.11
2022-09-21T11:28:05.062Z,79.35
2022-09-21T11:31:25.203Z,79.32
2022-09-21T11:33:57.132Z,79.63
2022-09-21T11:36:41.902Z,79.70
2022-09-21T11:39:46.802Z,79.02
2022-09-21T11:42:16.274Z,78.73
2022-09-21T11:45:07.948Z,78.80
2022-09-21T11:47:55.947Z,78.77
2022-09-21T11:50:59.604Z,77.24
2022-09-21T11:53:53.798Z,76.98
2022-09-21T11:57:17.442Z,77.55
2022-09-21T11:59:52.421Z,78.64
2022-09-21T12:02:41.404Z,77.84
2022-09-21T12:05:13.105Z,76.56
2022-09-21T12:08:13.035Z,76.00
2022-09-21T12:10:44.798Z,75.32
2022-09-21T12:13:55.848Z,75.68
2022-09-21T12:17:21.596Z,76.21
2022-09-21T12:20:17.363Z,76.13
2022-09-21T12:23:00.009Z,75.49
2022-09-21T12:25:41.573Z,74.76
2022-09-21T12:28:23.126Z,74.58
2022-09-21T12:31:25.820Z,74.46
2022-09-21T12:34:19.128Z,73.74
2022-09-21T12:37:07.288Z,74.38
2022-09-21T12:40:07.750Z,73.87
2022-09-21T12:42:51.307Z,73.97
2022-09-21T12:45:36.190Z,73.12
2022-09-21T12:48:26.674Z,74.18
2022-09-21T12:51:06.518Z,74.60
2022-09-21T12:53:39.058Z,74.29
2022-09-21T12:56:16.383Z,74.24
2022-09-21T12:59:09.441Z,74.95
2022-09-21T13:01:54.826Z,75.23
2022-09-21T13:04:58.614Z,75.05
2022-09-21T13:07:46.413Z,74.99
2022-09-21T13:10:39.867Z,75.18
2022-09-21T13:13:29.523Z,74.78
2022-09-21T13:15:59.759Z,74.88
2022-09-21T13:19:10.658Z,74.20
2022-09-21T13:21:40.318Z,72.43
2022-09-21T13:24:30.697Z,72.80
2022-09-21T13:27:14.219Z,73.34
2022-09-21T13:29:43.293Z,73.41
2022-09-21T13:32:12.048Z,74.05
2022-09-21T13:34:45.631Z,74.72
2022-09-21T13:37:19.790Z,75.50
2022-09-21T13:40:39.368Z,75.88
2022-09-21T13:43:18.556Z,76.43
2022-09-21T13:45:55.277Z,76.60
2022-09-21T13:48:29.979Z,76.68
2022-09-21T13:51:02.001Z,77.19
2022-09-21T13:53:45.740Z,77.37
2022-09-21T13:56:29.503Z,77.58
2022-09-21T13:59:00.232Z,77.88
2022-09-21T14:01:47.350Z,78.25
2022-09-21T14:04:37.202Z,78.48
2022-09-21T14:07:20.263Z,78.15
2022-09-21T14:10:02.748Z,78.33
2022-09-21T14:12:38.807Z,78.28
2022-09-21T14:15:16.786Z,78.31
2022-09-21T14:18:08.092Z,78.26
2022-09-21T14:21:10.731Z,77.96
2022-09-21T14:23:40.393Z,77.83
2022-09-21T14:26:40.296Z,77.92
2022-09-21T14:29:37.077Z,77.68
2022-09-21T14:32:24.324Z,78.17
2022-09-21T14:35:01.842Z,78.24
2022-09-21T14:37:40.928Z,78.40
2022-09-21T14:40:25.666Z,78.05
2022-09-21T14:42:56.858Z,78.32
2022-09-21T14:45:52.862Z,78.26
2022-09-21T14:48:58.918Z,77.57
2022-09-21T14:51:43.127Z,77.86
2022-09-21T14:54:59.803Z,77.59
2022-09-21T14:58:05.635Z,77.04
2022-09-21T15:00:44.450Z,77.41
2022-09-21T15:03:44.114Z,77.62
2022-09-21T15:06:45.692Z,77.78
2022-09-21T15:10:05.649Z,77.30
2022-09-21T15:12:53.283Z,77.59
2022-09-21T15:15:32.739Z,77.60
2022-09-21T15:18:04.143Z,78.31
2022-09-21T15:20:33.260Z,78.22
2022-09-21T15:23:02.359Z,78.73
2022-09-21T15:25:34.335Z,78.63
2022-09-21T15:28:03.434Z,78.62
2022-09-21T15:30:46.912Z,78.73
2022-09-21T15:33:15.878Z,78.91
2022-09-21T15:35:47.899Z,78.95
2022-09-21T15:38:31.845Z,78.93
2022-09-21T15:41:45.137Z,78.96
2022-09-21T15:44:32.639Z,79.11
2022-09-21T15:47:03.312Z,79.17
2022-09-21T15:49:46.239Z,79.28
2022-09-21T15:52:15.168Z,79.18
2022-09-21T15:54:52.834Z,79.20
2022-09-21T15:57:29.116Z,79.53
2022-09-21T16:00:14.971Z,79.63
2022-09-21T16:03:26.937Z,79.79
2022-09-21T16:05:57.764Z,79.93
2022-09-21T16:08:30.992Z,79.77
2022-09-21T16:11:26.962Z,79.90
2022-09-21T16:14:20.238Z,79.78
2022-09-21T16:17:19.911Z,79.88
2022-09-21T16:19:52.887Z,79.85
2022-09-21T16:22:28.577Z,79.95
2022-09-21T16:24:59.880Z,79.62
2022-09-21T16:27:33.026Z,79.87
2022-09-21T16:30:02.705Z,79.71
2022-09-21T16:32:48.863Z,79.69
2022-09-21T16:35:31.765Z,80.03
2022-09-21T16:38:01.675Z,79.77
2022-09-21T16:40:30.382Z,80.01
2022-09-21T16:42:59.095Z,79.95
2022-09-21T16:45:31.670Z,80.08
2022-09-21T16:48:03.268Z,80.15
2022-09-21T16:50:32.232Z,79.80
2022-09-21T16:53:01.324Z,79.85
2022-09-21T16:55:30.780Z,79.86
2022-09-21T16:58:00.571Z,79.84
2022-09-21T17:00:35.393Z,79.60
2022-09-21T17:03:04.488Z,79.89
2022-09-21T17:05:33.460Z,79.81
2022-09-21T17:08:02.730Z,80.03
2022-09-21T17:10:37.340Z,79.94
2022-09-21T17:13:07.230Z,80.04
2022-09-21T17:15:50.168Z,80.04
2022-09-21T17:18:19.339Z,80.20
2022-09-21T17:20:50.241Z,80.02
2022-09-21T17:23:19.631Z,80.12
2022-09-21T17:25:48.593Z,80.23
2022-09-21T17:28:31.465Z,80.28
2022-09-21T17:31:01.026Z,80.40
2022-09-21T17:33:31.463Z,80.45
2022-09-21T17:36:01.836Z,80.82
2022-09-21T17:38:31.657Z,80.78
2022-09-21T17:41:05.521Z,80.62
2022-09-21T17:44:40.900Z,80.86
2022-09-21T17:47:16.121Z,80.96
2022-09-21T17:49:48.206Z,81.07
2022-09-21T17:52:39.626Z,81.08
2022-09-21T17:55:13.322Z,81.41
2022-09-21T17:57:49.586Z,81.09
2022-09-21T18:00:24.165Z,81.21
2022-09-21T18:02:54.056Z,81.15
2022-09-21T18:05:36.866Z,81.10
2022-09-21T18:08:06.207Z,81.36
2022-09-21T18:10:35.040Z,81.33
2022-09-21T18:13:39.529Z,81.30
2022-09-21T18:16:20.017Z,81.26
2022-09-21T18:18:57.702Z,81.13
2022-09-21T18:21:28.170Z,81.25
2022-09-21T18:24:35.953Z,81.32
2022-09-21T18:27:06.909Z,81.38
2022-09-21T18:29:40.481Z,81.42
2022-09-21T18:32:42.751Z,81.46
2022-09-21T18:35:50.722Z,81.61
2022-09-21T18:38:43.307Z,81.60
2022-09-21T18:41:47.000Z,81.75
2022-09-21T18:44:36.736Z,81.63
2022-09-21T18:47:44.083Z,81.42
2022-09-21T18:50:26.777Z,81.57
2022-09-21T18:53:26.857Z,81.88
2022-09-21T18:55:59.470Z,81.77
2022-09-21T18:58:33.161Z,82.08
2022-09-21T19:01:04.876Z,82.34
2022-09-21T19:03:34.871Z,82.10
2022-09-21T19:06:06.768Z,82.31
2022-09-21T19:08:43.753Z,82.11
2022-09-21T19:11:38.420Z,82.06
2022-09-21T19:14:20.228Z,82.31
2022-09-21T19:17:02.118Z,82.46
2022-09-21T19:19:50.020Z,82.27
2022-09-21T19:22:32.553Z,82.33
2022-09-21T19:25:16.065Z,82.46
2022-09-21T19:27:54.927Z,82.24
2022-09-21T19:30:26.036Z,82.39
2022-09-21T19:33:01.499Z,82.45
2022-09-21T19:35:32.835Z,82.51
2022-09-21T19:38:04.434Z,82.79
2022-09-21T19:40:38.876Z,82.70
2022-09-21T19:43:21.346Z,82.93
2022-09-21T19:46:12.644Z,82.82
2022-09-21T19:48:51.513Z,82.53
2022-09-21T19:51:54.654Z,82.66
2022-09-21T19:54:56.309Z,82.85
2022-09-21T19:57:46.554Z,82.89
2022-09-21T20:03:15.052Z,82.63
2022-09-21T20:06:10.043Z,82.87
2022-09-21T20:09:07.593Z,82.87
2022-09-21T20:12:03.783Z,83.19
2022-09-21T20:14:38.949Z,83.13
2022-09-21T20:20:32.447Z,83.09
2022-09-21T20:23:01.449Z,82.87
2022-09-21T20:26:03.567Z,83.05
2022-09-21T20:28:33.367Z,83.28
2022-09-21T20:31:04.484Z,83.38
2022-09-21T20:33:33.707Z,83.41
2022-09-21T20:36:02.612Z,83.37
2022-09-21T20:38:45.167Z,83.38
2022-09-21T20:41:16.726Z,82.98
2022-09-21T20:43:45.479Z,82.91
2022-09-21T20:46:14.316Z,83.19
2022-09-21T20:48:43.879Z,83.44
2022-09-21T20:51:12.648Z,83.79
2022-09-21T20:53:42.711Z,83.45
2022-09-21T20:56:24.970Z,83.65
2022-09-21T20:58:53.616Z,83.44
2022-09-21T21:01:27.863Z,83.44
2022-09-21T21:04:03.847Z,83.45
2022-09-21T21:06:34.433Z,83.53
2022-09-21T21:09:03.898Z,83.39
2022-09-21T21:11:33.130Z,83.61
2022-09-21T21:14:02.130Z,83.25
2022-09-21T21:16:31.761Z,83.18
2022-09-21T21:19:01.409Z,83.30
2022-09-21T21:21:44.226Z,83.05
2022-09-21T21:24:46.132Z,83.34
2022-09-21T21:27:22.004Z,83.03
2022-09-21T21:29:54.139Z,83.48
2022-09-21T21:32:38.198Z,82.74
2022-09-21T21:35:08.647Z,83.48
2022-09-21T21:37:40.015Z,83.32
2022-09-21T21:40:23.232Z,83.00
2022-09-21T21:42:55.347Z,83.19
2022-09-21T21:45:24.968Z,82.84
2022-09-21T21:47:56.007Z,82.81
2022-09-21T21:50:25.308Z,82.95
2022-09-21T21:52:58.804Z,82.78
2022-09-21T21:55:28.714Z,83.25
2022-09-21T21:57:57.958Z,83.04
2022-09-21T22:00:40.301Z,83.67
2022-09-21T22:03:22.601Z,83.65
2022-09-21T22:05:56.776Z,83.67
2022-09-21T22:08:40.538Z,83.86
2022-09-21T22:11:09.765Z,83.85
2022-09-21T22:13:40.424Z,83.78
2022-09-21T22:16:12.434Z,83.69
2022-09-21T22:18:42.916Z,83.73
2022-09-21T22:21:14.991Z,83.55
2022-09-21T22:24:03.762Z,83.84
2022-09-21T22:26:46.568Z,83.74
2022-09-21T22:29:17.782Z,83.41
2022-09-21T22:31:48.962Z,83.31
2022-09-21T22:34:18.566Z,83.50
2022-09-21T22:36:47.494Z,83.70
2022-09-21T22:39:17.087Z,83.41
2022-09-21T22:41:45.950Z,83.92
2022-09-21T22:44:14.941Z,84.24
2022-09-21T22:46:43.873Z,84.50
2022-09-21T22:49:13.020Z,84.09
2022-09-21T22:51:42.143Z,84.07
2022-09-21T22:54:11.225Z,84.58
2022-09-21T22:59:23.274Z,84.46
2022-09-21T23:04:34.816Z,84.18
2022-09-21T23:07:04.243Z,84.21
2022-09-21T23:09:33.124Z,84.26
2022-09-21T23:12:02.467Z,84.50
2022-09-21T23:14:31.529Z,84.97
2022-09-21T23:17:00.728Z,85.01
2022-09-21T23:19:29.564Z,85.01
2022-09-21T23:21:59.463Z,84.89
2022-09-21T23:24:28.208Z,84.78
2022-09-21T23:26:57.456Z,84.88
2022-09-21T23:29:26.404Z,84.79
2022-09-21T23:31:55.034Z,85.08
2022-09-21T23:34:37.553Z,85.09
2022-09-21T23:37:07.043Z,84.93
2022-09-21T23:39:36.452Z,84.86
2022-09-21T23:42:06.763Z,84.93
2022-09-21T23:44:49.572Z,84.80
2022-09-21T23:47:32.398Z,84.85
2022-09-21T23:50:01.600Z,85.16
2022-09-21T23:52:43.987Z,84.90
2022-09-21T23:55:26.943Z,85.11
2022-09-21T23:57:56.415Z,84.84
